Time;durP1;ratioP1;P1;durP2;ratioP2;P2;SDS_P1;SDS_P2;PMS_P1;PMS_P2;Temp;Humidity;BMP_temperature;BMP_pressure;BME280_temperature;BME280_humidity;BME280_pressure;Samples;Min_cycle;Max_cycle;Signal;HPM_P1;HPM_P2
2022/06/13 00:01:59;;;;;;;20.73;9.68;;;13.20;99.90;;;;;;5019819;28;20157;-59
2022/06/13 00:04:24;;;;;;;20.30;9.45;;;13.10;99.90;;;;;;5019283;28;20041;-60
2022/06/13 00:06:50;;;;;;;17.52;8.45;;;13.20;99.90;;;;;;5020416;28;20120;-60
2022/06/13 00:09:16;;;;;;;19.58;9.10;;;13.20;99.90;;;;;;5018605;28;20461;-60
2022/06/13 00:11:41;;;;;;;16.75;8.82;;;13.30;99.90;;;;;;5020492;28;20161;-60
2022/06/13 00:14:07;;;;;;;16.90;8.98;;;13.20;99.90;;;;;;5018557;28;20045;-60
2022/06/13 00:16:34;;;;;;;25.45;8.38;;;13.30;99.90;;;;;;5019398;28;20034;-59
2022/06/13 00:19:00;;;;;;;21.92;8.73;;;13.30;99.90;;;;;;5001889;28;20160;-60
2022/06/13 00:21:29;;;;;;;18.83;7.93;;;13.20;99.90;;;;;;5018843;28;20101;-60
2022/06/13 00:23:55;;;;;;;16.55;6.47;;;13.20;99.90;;;;;;5020395;28;20052;-60
2022/06/13 00:26:24;;;;;;;15.18;7.63;;;13.30;99.90;;;;;;5018212;28;20046;-60
2022/06/13 00:28:51;;;;;;;19.63;8.23;;;13.20;99.90;;;;;;5020190;28;20493;-60
2022/06/13 00:31:18;;;;;;;17.85;7.55;;;13.30;99.90;;;;;;5018441;28;20042;-60
2022/06/13 00:33:44;;;;;;;21.20;7.60;;;13.20;99.90;;;;;;5019426;28;20510;-58
2022/06/13 00:36:10;;;;;;;18.88;7.97;;;13.20;99.90;;;;;;5019324;28;20067;-60
2022/06/13 00:38:37;;;;;;;13.55;6.60;;;13.20;99.90;;;;;;5018900;28;20063;-60
2022/06/13 00:41:14;;;;;;;17.83;7.05;;;13.20;99.90;;;;;;5002402;28;20045;-59
2022/06/13 00:43:42;;;;;;;15.85;7.30;;;13.20;99.90;;;;;;5017981;28;20520;-59
2022/06/13 00:46:22;;;;;;;17.05;7.22;;;13.20;99.90;;;;;;5019837;28;20037;-60
2022/06/13 00:48:56;;;;;;;18.63;7.55;;;13.20;99.90;;;;;;5018898;28;20049;-59
2022/06/13 00:51:22;;;;;;;18.58;7.25;;;13.30;99.90;;;;;;5018781;28;20049;-60
2022/06/13 00:53:47;;;;;;;16.85;7.03;;;13.30;99.90;;;;;;5019808;28;20149;-59
2022/06/13 00:56:23;;;;;;;15.93;7.28;;;13.30;99.90;;;;;;5017903;28;20042;-60
2022/06/13 00:58:59;;;;;;;16.45;6.90;;;13.40;99.90;;;;;;5002283;28;20057;-60
2022/06/13 01:01:28;;;;;;;20.20;7.43;;;13.30;99.90;;;;;;5018271;28;20033;-59
2022/06/13 01:03:56;;;;;;;16.15;7.28;;;13.30;99.90;;;;;;5019073;28;20148;-60
2022/06/13 01:06:22;;;;;;;17.45;7.38;;;13.30;99.90;;;;;;5019304;28;20050;-59
2022/06/13 01:08:47;;;;;;;18.60;7.38;;;13.30;99.90;;;;;;5017907;28;20049;-60
2022/06/13 01:11:18;;;;;;;14.95;7.05;;;13.30;99.90;;;;;;5019764;28;20052;-59
2022/06/13 01:14:21;;;;;;;14.15;6.43;;;13.20;99.90;;;;;;5017651;28;20506;-59
2022/06/13 01:17:14;;;;;;;25.30;7.75;;;13.30;99.90;;;;;;5018818;28;20042;-60
2022/06/13 01:19:51;;;;;;;15.50;6.88;;;13.30;99.90;;;;;;5019406;28;20106;-60
2022/06/13 01:22:35;;;;;;;20.67;7.88;;;13.20;99.90;;;;;;5017402;28;20054;-59
2022/06/13 01:25:28;;;;;;;17.17;7.43;;;13.20;99.90;;;;;;5019330;28;20518;-59
2022/06/13 01:28:12;;;;;;;19.23;7.30;;;13.30;99.90;;;;;;5019177;28;20046;-58
2022/06/13 01:31:09;;;;;;;15.93;7.88;;;13.20;99.90;;;;;;5021134;28;20157;-59
2022/06/13 01:34:04;;;;;;;17.63;7.28;;;13.30;99.90;;;;;;5005408;28;20077;-59
2022/06/13 01:36:57;;;;;;;17.25;7.13;;;13.30;99.90;;;;;;5005339;28;20050;-59
2022/06/13 01:39:57;;;;;;;15.77;7.22;;;13.30;99.90;;;;;;5021485;28;20061;-59
2022/06/13 01:42:35;;;;;;;20.48;7.00;;;13.50;99.90;;;;;;5022470;28;20605;-60
2022/06/13 01:45:18;;;;;;;20.27;8.10;;;13.50;99.90;;;;;;5022728;28;20042;-59
2022/06/13 01:48:08;;;;;;;17.92;7.15;;;13.40;99.90;;;;;;5021088;28;20096;-60
2022/06/13 01:50:53;;;;;;;16.08;7.47;;;13.40;99.90;;;;;;5022862;28;20064;-60
2022/06/13 01:53:38;;;;;;;16.92;7.85;;;13.40;99.90;;;;;;5022371;28;20045;-59
2022/06/13 01:56:11;;;;;;;17.30;7.45;;;13.40;99.90;;;;;;5021150;28;20116;-60
2022/06/13 01:58:58;;;;;;;20.45;7.82;;;13.50;99.90;;;;;;5022937;28;20056;-60
2022/06/13 02:01:32;;;;;;;17.45;7.50;;;13.40;99.90;;;;;;5003724;28;20492;-59
2022/06/13 02:04:13;;;;;;;19.25;7.75;;;13.40;99.90;;;;;;5022143;28;20046;-59
2022/06/13 02:06:49;;;;;;;17.77;7.47;;;13.40;99.90;;;;;;5022579;28;20046;-59
2022/06/13 02:09:23;;;;;;;15.77;7.57;;;13.30;99.90;;;;;;5020912;28;20046;-60
2022/06/13 02:11:51;;;;;;;19.90;7.47;;;13.40;99.90;;;;;;5022579;28;20501;-59
2022/06/13 02:14:35;;;;;;;19.67;7.63;;;13.30;99.90;;;;;;5021194;28;20049;-60
2022/06/13 02:17:14;;;;;;;18.33;7.00;;;13.40;99.90;;;;;;5021507;28;20149;-60
2022/06/13 02:19:56;;;;;;;19.33;7.45;;;13.40;99.90;;;;;;5022412;28;20045;-59
2022/06/13 02:22:44;;;;;;;22.02;9.27;;;13.40;99.90;;;;;;5020463;28;20098;-59
2022/06/13 02:25:16;;;;;;;17.60;6.78;;;13.50;99.90;;;;;;5022083;28;20044;-59
2022/06/13 02:27:47;;;;;;;19.25;7.95;;;13.40;99.90;;;;;;5021741;28;20048;-59
2022/06/13 02:30:19;;;;;;;18.25;7.57;;;13.40;99.90;;;;;;5020782;28;20041;-59
2022/06/13 02:32:59;;;;;;;18.80;6.97;;;13.40;99.90;;;;;;5022380;28;20084;-59
2022/06/13 02:35:35;;;;;;;20.10;7.72;;;13.40;99.90;;;;;;5020678;28;20061;-59
2022/06/13 02:38:06;;;;;;;15.73;6.60;;;13.30;99.90;;;;;;5021709;28;20038;-59
2022/06/13 02:40:44;;;;;;;16.65;7.35;;;13.50;99.90;;;;;;5021307;28;20104;-59
2022/06/13 02:43:18;;;;;;;19.45;6.80;;;13.50;99.90;;;;;;5020274;28;20570;-59
2022/06/13 02:45:56;;;;;;;20.95;7.30;;;13.50;99.90;;;;;;5021968;28;20485;-59
2022/06/13 02:48:43;;;;;;;17.77;6.88;;;13.50;99.90;;;;;;5020371;28;20042;-59
2022/06/13 02:51:23;;;;;;;19.20;6.70;;;13.40;99.90;;;;;;5021081;28;20049;-60
2022/06/13 02:53:54;;;;;;;18.75;6.75;;;13.40;99.90;;;;;;5021791;28;20041;-59
2022/06/13 02:59:48;;;;;;;17.70;6.30;;;13.40;99.90;;;;;;5020746;28;20504;-60
2022/06/13 03:02:19;;;;;;;16.42;6.43;;;13.40;99.90;;;;;;5021759;28;20054;-59
2022/06/13 03:04:57;;;;;;;17.02;7.07;;;13.30;99.90;;;;;;5019791;28;20065;-59
2022/06/13 03:07:32;;;;;;;17.60;7.30;;;13.30;99.90;;;;;;5021577;28;20070;-59
2022/06/13 03:10:16;;;;;;;19.65;7.10;;;13.30;99.90;;;;;;5020168;28;20049;-59
2022/06/13 03:12:59;;;;;;;17.33;7.00;;;13.30;99.90;;;;;;5020603;28;20038;-59
2022/06/13 03:15:37;;;;;;;15.98;6.82;;;13.20;99.90;;;;;;5021241;28;20077;-59
2022/06/13 03:18:12;;;;;;;19.48;6.78;;;13.30;99.90;;;;;;5019481;28;20042;-59
2022/06/13 03:20:49;;;;;;;18.58;6.53;;;13.20;99.90;;;;;;5021143;28;20086;-60
2022/06/13 03:23:23;;;;;;;15.00;5.72;;;13.10;99.90;;;;;;5020468;28;20081;-60
2022/06/13 03:25:59;;;;;;;18.35;6.65;;;13.10;99.90;;;;;;5019869;28;20046;-60
2022/06/13 03:28:37;;;;;;;15.10;6.55;;;13.10;99.90;;;;;;5021163;28;20064;-59
2022/06/13 03:31:08;;;;;;;14.30;5.90;;;13.10;99.90;;;;;;5019476;28;20037;-59
2022/06/13 03:33:40;;;;;;;17.27;5.97;;;13.10;99.90;;;;;;5020781;28;20072;-60
2022/06/13 03:36:11;;;;;;;14.77;5.53;;;13.00;99.90;;;;;;5020288;28;20081;-59
2022/06/13 03:38:42;;;;;;;11.77;4.82;;;13.00;99.90;;;;;;5001801;28;20054;-60
2022/06/13 03:41:13;;;;;;;12.18;5.30;;;12.90;99.90;;;;;;5021127;28;20474;-60
2022/06/13 03:43:45;;;;;;;15.32;5.68;;;12.80;99.90;;;;;;5018691;28;20052;-60
2022/06/13 03:46:23;;;;;;;13.82;5.72;;;12.90;99.90;;;;;;5020794;28;20053;-60
2022/06/13 03:49:35;;;;;;;13.18;4.63;;;12.80;99.90;;;;;;5019808;28;20045;-60
2022/06/13 03:52:03;;;;;;;11.73;4.10;;;12.80;99.90;;;;;;4976445;28;20082;-61
2022/06/13 03:54:34;;;;;;;14.98;4.57;;;12.90;99.90;;;;;;5015609;28;20085;-60
2022/06/13 03:57:09;;;;;;;13.68;4.40;;;13.00;99.90;;;;;;5019320;28;20077;-60
2022/06/13 03:59:56;;;;;;;13.05;5.07;;;12.90;99.90;;;;;;5019857;28;20437;-60
2022/06/13 04:02:27;;;;;;;13.48;4.13;;;12.80;99.90;;;;;;5020755;28;20089;-60
2022/06/13 04:04:53;;;;;;;13.10;4.15;;;12.80;99.90;;;;;;5018687;28;20097;-60
2022/06/13 04:07:21;;;;;;;15.02;4.47;;;13.00;99.90;;;;;;5002915;28;20057;-60
2022/06/13 04:09:52;;;;;;;15.80;5.40;;;13.10;99.90;;;;;;5018879;28;20045;-59
2022/06/13 04:12:23;;;;;;;12.32;4.90;;;13.20;99.90;;;;;;5020121;28;20034;-60
2022/06/13 04:15:06;;;;;;;12.77;4.88;;;13.00;99.90;;;;;;5019778;28;20507;-59
2022/06/13 04:17:41;;;;;;;11.40;4.90;;;13.00;99.90;;;;;;5018384;28;20065;-60
2022/06/13 04:20:19;;;;;;;16.55;6.53;;;13.00;99.90;;;;;;5020183;28;20137;-60
2022/06/13 04:22:50;;;;;;;11.98;5.45;;;13.10;99.90;;;;;;5018937;28;20050;-59
2022/06/13 04:25:55;;;;;;;12.85;5.00;;;13.20;99.90;;;;;;5019581;28;20045;-60
2022/06/13 04:28:39;;;;;;;13.60;5.18;;;13.20;99.90;;;;;;5020327;28;20860;-60
2022/06/13 04:31:07;;;;;;;11.10;4.15;;;13.20;99.90;;;;;;5018695;28;20061;-60
2022/06/13 04:33:41;;;;;;;12.52;4.45;;;13.20;99.90;;;;;;5019839;28;20053;-60
2022/06/13 04:36:11;;;;;;;14.48;4.50;;;13.10;99.90;;;;;;5019559;28;20069;-60
2022/06/13 04:38:41;;;;;;;12.50;4.57;;;13.10;99.90;;;;;;5018719;28;20050;-60
2022/06/13 04:41:10;;;;;;;11.90;4.05;;;13.10;99.90;;;;;;5019888;28;20129;-60
2022/06/13 04:43:41;;;;;;;10.25;3.85;;;13.00;99.90;;;;;;5017923;28;20042;-60
2022/06/13 04:46:18;;;;;;;14.38;3.83;;;13.00;99.90;;;;;;5019866;28;20042;-60
2022/06/13 04:48:46;;;;;;;12.25;3.05;;;13.00;99.90;;;;;;5019027;28;20104;-60
2022/06/13 04:51:15;;;;;;;10.30;2.92;;;13.00;99.90;;;;;;5018786;28;20101;-60
2022/06/13 04:54:02;;;;;;;8.07;2.70;;;12.90;99.90;;;;;;5019822;28;20052;-59
2022/06/13 04:56:28;;;;;;;8.27;2.35;;;12.80;99.90;;;;;;5018106;28;20199;-59
2022/06/13 04:58:55;;;;;;;8.25;2.75;;;12.80;99.90;;;;;;5019859;28;20048;-60
2022/06/13 05:01:33;;;;;;;10.43;2.28;;;12.80;99.90;;;;;;5018426;28;20046;-60
2022/06/13 05:04:03;;;;;;;8.45;2.00;;;12.80;99.90;;;;;;5021330;28;20050;-60
2022/06/13 05:06:37;;;;;;;8.80;2.35;;;12.90;99.90;;;;;;5023885;28;20056;-60
2022/06/13 05:09:15;;;;;;;7.63;2.67;;;12.80;99.90;;;;;;5022143;28;20473;-60
2022/06/13 05:11:53;;;;;;;7.57;2.38;;;12.70;99.90;;;;;;5006060;28;20068;-60
2022/06/13 05:14:36;;;;;;;12.07;2.67;;;12.80;99.90;;;;;;5022498;28;20056;-60
2022/06/13 05:17:40;;;;;;;7.88;2.38;;;12.90;99.90;;;;;;5022625;28;20045;-60
2022/06/13 05:20:35;;;;;;;5.30;2.00;;;12.90;99.90;;;;;;5020474;28;20050;-60
2022/06/13 05:23:12;;;;;;;8.63;2.08;;;13.00;99.90;;;;;;5022604;28;20058;-60
2022/06/13 05:25:46;;;;;;;8.25;2.03;;;13.30;99.90;;;;;;5022270;28;20042;-60
2022/06/13 05:28:15;;;;;;;5.32;1.60;;;13.50;99.90;;;;;;5023627;28;20049;-60
2022/06/13 05:30:43;;;;;;;6.30;1.98;;;13.60;99.90;;;;;;5021579;28;20041;-59
2022/06/13 05:33:14;;;;;;;6.78;1.92;;;13.60;99.90;;;;;;5023443;28;20038;-60
2022/06/13 05:35:43;;;;;;;5.38;1.65;;;13.50;99.90;;;;;;5022068;28;20046;-58
2022/06/13 05:38:15;;;;;;;5.18;1.55;;;13.60;99.90;;;;;;5022440;28;20046;-59
2022/06/13 05:40:41;;;;;;;7.78;2.10;;;13.60;99.90;;;;;;5022851;28;20056;-60
2022/06/13 05:43:09;;;;;;;5.32;1.58;;;13.40;99.90;;;;;;5021545;28;20038;-61
2022/06/13 05:45:34;;;;;;;7.50;1.83;;;13.40;99.90;;;;;;5022885;28;20065;-59
2022/06/13 05:48:00;;;;;;;6.25;2.08;;;13.20;99.90;;;;;;5021019;28;20088;-59
2022/06/13 05:50:29;;;;;;;8.38;1.90;;;13.20;99.90;;;;;;5022816;28;20078;-60
2022/06/13 05:52:55;;;;;;;7.22;1.70;;;13.30;99.90;;;;;;5021927;28;20042;-59
2022/06/13 05:55:21;;;;;;;8.25;2.15;;;13.40;99.90;;;;;;5022058;28;20042;-59
2022/06/13 05:57:47;;;;;;;5.75;1.95;;;13.60;99.90;;;;;;5022725;28;20050;-59
2022/06/13 06:00:22;;;;;;;7.13;1.77;;;13.50;99.90;;;;;;5020921;28;20074;-59
2022/06/13 06:02:48;;;;;;;8.82;2.78;;;13.50;99.90;;;;;;5023129;28;20472;-59
2022/06/13 06:05:14;;;;;;;7.43;1.67;;;13.70;99.90;;;;;;5021203;28;20080;-61
2022/06/13 06:07:40;;;;;;;7.25;1.65;;;13.80;99.90;;;;;;5022346;28;20515;-59
2022/06/13 06:10:08;;;;;;;8.90;1.98;;;13.60;99.90;;;;;;5021716;28;20057;-59
2022/06/13 06:12:33;;;;;;;6.75;2.13;;;13.50;99.90;;;;;;5021799;28;20058;-59
2022/06/13 06:14:59;;;;;;;10.43;2.63;;;13.40;99.90;;;;;;5021176;28;20054;-59
2022/06/13 06:17:25;;;;;;;6.43;1.75;;;13.30;99.90;;;;;;5020760;28;20048;-59
2022/06/13 06:19:52;;;;;;;10.02;2.28;;;13.40;99.90;;;;;;5022484;28;20064;-59
2022/06/13 06:22:18;;;;;;;7.35;1.83;;;13.40;99.90;;;;;;5020261;28;20085;-59
2022/06/13 06:24:43;;;;;;;12.77;1.90;;;13.40;99.90;;;;;;5004602;28;20041;-59
2022/06/13 06:27:13;;;;;;;7.80;1.75;;;13.40;99.90;;;;;;5021158;28;20109;-59
2022/06/13 06:29:39;;;;;;;7.88;1.98;;;13.60;99.90;;;;;;5021454;28;20076;-59
2022/06/13 06:32:05;;;;;;;10.05;2.00;;;13.70;99.90;;;;;;5021907;28;20054;-60
2022/06/13 06:34:31;;;;;;;9.32;2.40;;;14.00;99.90;;;;;;5020653;28;20042;-61
2022/06/13 06:36:57;;;;;;;7.45;1.92;;;14.20;99.90;;;;;;5022536;28;20069;-59
2022/06/13 06:39:22;;;;;;;9.32;2.22;;;14.10;99.90;;;;;;5020228;28;20046;-59
2022/06/13 06:41:48;;;;;;;7.47;1.98;;;14.20;99.90;;;;;;5021999;28;20060;-60
2022/06/13 06:44:14;;;;;;;7.40;1.80;;;14.10;99.90;;;;;;5020514;28;20050;-59
2022/06/13 06:46:40;;;;;;;5.43;1.60;;;13.80;99.90;;;;;;5021140;28;20177;-60
2022/06/13 06:49:06;;;;;;;8.15;1.95;;;13.70;99.90;;;;;;5021722;28;20042;-60
2022/06/13 06:51:31;;;;;;;11.52;2.25;;;13.60;99.90;;;;;;5020235;28;20097;-61
2022/06/13 07:02:11;;;;;;;8.30;2.13;;;13.80;99.90;;;;;;5021638;28;20045;-60
2022/06/13 07:04:37;;;;;;;8.65;1.73;;;14.10;99.90;;;;;;5019719;28;20045;-60
2022/06/13 07:07:03;;;;;;;8.27;1.98;;;14.20;99.90;;;;;;5021523;28;20053;-60
2022/06/13 07:09:29;;;;;;;10.68;2.03;;;14.50;99.90;;;;;;5020001;28;20133;-60
2022/06/13 07:11:56;;;;;;;10.40;1.70;;;14.70;99.90;;;;;;5021260;28;20081;-60
2022/06/13 07:14:31;;;;;;;8.57;1.58;;;14.80;99.90;;;;;;5020294;28;20056;-59
2022/06/13 07:16:59;;;;;;;7.30;1.35;;;14.50;99.90;;;;;;5020038;28;20057;-60
2022/06/13 07:19:25;;;;;;;8.48;1.65;;;14.20;99.90;;;;;;5021148;28;20052;-59
2022/06/13 07:21:51;;;;;;;7.32;1.70;;;14.10;99.90;;;;;;5019222;28;20052;-59
2022/06/13 07:24:18;;;;;;;7.95;1.50;;;14.10;99.90;;;;;;5021284;28;20466;-60
2022/06/13 07:26:44;;;;;;;8.95;1.60;;;14.00;99.90;;;;;;5019543;28;20048;-59
2022/06/13 07:29:09;;;;;;;9.25;1.80;;;13.90;99.90;;;;;;5003229;28;20073;-60
2022/06/13 07:31:45;;;;;;;8.57;1.50;;;14.00;99.90;;;;;;5020174;28;20049;-59
2022/06/13 07:34:14;;;;;;;9.10;2.95;;;14.00;99.90;;;;;;5019619;28;20061;-61
2022/06/13 07:36:42;;;;;;;5.03;1.42;;;14.20;99.90;;;;;;5021022;28;20045;-60
2022/06/13 07:39:08;;;;;;;9.40;1.52;;;14.40;99.90;;;;;;5019102;28;20050;-59
2022/06/13 07:41:35;;;;;;;6.78;1.88;;;14.60;99.90;;;;;;5020958;28;20072;-60
2022/06/13 07:44:01;;;;;;;9.80;1.70;;;14.90;99.90;;;;;;5019370;28;20038;-59
2022/06/13 07:46:29;;;;;;;7.60;1.33;;;15.00;99.90;;;;;;5020057;28;20053;-60
2022/06/13 07:48:55;;;;;;;7.03;1.10;;;14.80;99.90;;;;;;5020250;28;20139;-59
2022/06/13 07:51:21;;;;;;;8.32;1.30;;;15.00;99.90;;;;;;5019420;28;20596;-59
2022/06/13 07:53:47;;;;;;;6.35;1.20;;;15.20;99.90;;;;;;5020703;28;20042;-59
2022/06/13 07:56:17;;;;;;;6.47;1.30;;;15.00;99.90;;;;;;5018955;28;20104;-60
2022/06/13 07:58:45;;;;;;;5.93;1.15;;;15.10;99.90;;;;;;5020528;28;20053;-59
2022/06/13 08:01:12;;;;;;;5.60;1.23;;;15.40;99.90;;;;;;5019112;28;20165;-60
2022/06/13 08:03:38;;;;;;;11.73;1.70;;;15.50;99.90;;;;;;5019942;28;20034;-60
2022/06/13 08:06:05;;;;;;;6.35;1.27;;;15.10;99.90;;;;;;5002432;28;20719;-60
2022/06/13 08:08:34;;;;;;;7.60;1.10;;;15.10;99.90;;;;;;5018961;28;20050;-60
2022/06/13 08:11:02;;;;;;;5.40;1.98;;;15.20;99.90;;;;;;5020545;28;20038;-61
2022/06/13 08:13:29;;;;;;;8.25;1.30;;;15.40;99.90;;;;;;5018321;28;20042;-59
2022/06/13 08:15:55;;;;;;;10.43;1.83;;;15.40;99.90;;;;;;5020250;28;20049;-60
2022/06/13 08:18:21;;;;;;;6.97;1.35;;;15.50;99.90;;;;;;5018856;28;20045;-59
2022/06/13 08:20:47;;;;;;;7.72;1.50;;;15.50;99.90;;;;;;5019794;28;20494;-60
2022/06/13 08:23:15;;;;;;;9.27;1.60;;;15.60;99.90;;;;;;5002160;28;20106;-60
2022/06/13 08:25:42;;;;;;;9.15;1.88;;;15.90;99.90;;;;;;5018919;28;20514;-60
2022/06/13 08:28:09;;;;;;;6.95;1.30;;;15.70;99.90;;;;;;5020146;28;20092;-59
2022/06/13 08:30:56;;;;;;;8.25;1.65;;;15.30;99.90;;;;;;5018289;28;20037;-59
2022/06/13 08:33:23;;;;;;;7.57;1.65;;;15.30;99.90;;;;;;5019917;28;20046;-59
2022/06/13 08:35:49;;;;;;;5.55;1.25;;;15.60;99.90;;;;;;5019176;28;20056;-59
2022/06/13 08:38:16;;;;;;;8.25;1.30;;;15.50;99.90;;;;;;5018606;28;20045;-59
2022/06/13 08:41:01;;;;;;;8.82;1.45;;;15.60;99.90;;;;;;5019934;28;20045;-59
2022/06/13 08:43:33;;;;;;;8.40;1.55;;;15.60;99.90;;;;;;5017825;28;20042;-58
2022/06/13 08:46:06;;;;;;;;;;;15.90;99.90;;;;;;5020373;28;20049;-60
2022/06/13 08:48:40;;;;;;;7.10;1.52;;;16.00;99.90;;;;;;5018866;28;20376;-58
2022/06/13 08:51:15;;;;;;;6.78;1.20;;;16.00;99.90;;;;;;5018642;28;20042;-59
2022/06/13 08:53:56;;;;;;;6.70;1.15;;;15.90;99.90;;;;;;5019705;28;20045;-59
2022/06/13 08:56:26;;;;;;;8.88;2.15;;;16.30;99.90;;;;;;5018050;28;20106;-59
2022/06/13 08:59:22;;;;;;;8.07;1.80;;;16.30;99.90;;;;;;5019624;28;20046;-59
2022/06/13 09:01:57;;;;;;;8.93;1.42;;;15.70;99.90;;;;;;5019229;28;20052;-59
2022/06/13 09:04:36;;;;;;;11.80;1.88;;;16.10;99.90;;;;;;5017944;28;20121;-59
2022/06/13 09:07:17;;;;;;;10.13;1.90;;;16.20;99.90;;;;;;5019883;28;20073;-59
2022/06/13 09:09:58;;;;;;;9.57;1.50;;;16.00;99.90;;;;;;5018313;28;20042;-59
2022/06/13 09:12:31;;;;;;;9.18;1.55;;;15.60;99.90;;;;;;5018918;28;20155;-60
2022/06/13 09:15:18;;;;;;;9.02;2.10;;;15.90;99.90;;;;;;5019122;28;20132;-59
2022/06/13 09:18:11;;;;;;;7.20;1.23;;;15.90;99.90;;;;;;5017871;28;20073;-60
2022/06/13 09:20:56;;;;;;;8.43;2.13;;;15.90;99.90;;;;;;5019110;28;20693;-60
2022/06/13 09:23:29;;;;;;;12.73;1.83;;;15.70;99.90;;;;;;5019138;28;20064;-59
2022/06/13 09:26:17;;;;;;;10.27;2.50;;;16.20;99.90;;;;;;5017705;28;20100;-59
2022/06/13 09:29:00;;;;;;;12.57;1.88;;;16.00;99.90;;;;;;5019378;28;20493;-59
2022/06/13 09:31:45;;;;;;;10.38;1.80;;;15.90;99.90;;;;;;5018629;28;20116;-60
2022/06/13 09:34:35;;;;;;;10.45;1.77;;;16.30;99.90;;;;;;5017975;28;20098;-60
2022/06/13 09:37:16;;;;;;;10.07;2.15;;;16.40;99.90;;;;;;5019533;28;20042;-59
2022/06/13 09:39:42;;;;;;;7.85;1.80;;;16.10;99.90;;;;;;5017775;28;20073;-59
2022/06/13 09:42:16;;;;;;;9.55;2.05;;;15.60;99.90;;;;;;5018947;28;20050;-58
2022/06/13 09:44:50;;;;;;;10.68;1.75;;;15.90;99.90;;;;;;5018983;28;20106;-59
2022/06/13 09:47:28;;;;;;;10.50;1.52;;;15.60;99.90;;;;;;5017627;28;20544;-59
2022/06/13 09:50:17;;;;;;;8.73;1.77;;;15.30;99.90;;;;;;5020035;28;20037;-59
2022/06/13 09:53:02;;;;;;;12.00;1.92;;;15.70;99.90;;;;;;5021720;28;20057;-59
2022/06/13 09:55:44;;;;;;;10.32;1.88;;;15.60;99.90;;;;;;5021732;28;20125;-58
2022/06/13 09:58:28;;;;;;;11.57;2.42;;;15.60;99.90;;;;;;5023290;28;20058;-59
2022/06/13 10:01:23;;;;;;;12.45;2.13;;;15.30;99.90;;;;;;5021176;28;20054;-59
2022/06/13 10:03:58;;;;;;;7.80;1.50;;;15.60;99.90;;;;;;5012793;28;20057;-58
2022/06/13 10:06:42;;;;;;;9.48;1.52;;;15.70;99.90;;;;;;5022603;28;20049;-58
2022/06/13 10:09:30;;;;;;;8.02;1.85;;;15.70;99.90;;;;;;5020959;28;20046;-59
2022/06/13 10:12:06;;;;;;;8.63;2.20;;;15.90;99.90;;;;;;5022492;28;20038;-58
2022/06/13 10:14:43;;;;;;;8.55;1.50;;;16.00;99.90;;;;;;5021704;28;20045;-59
2022/06/13 10:17:18;;;;;;;10.57;1.85;;;16.10;99.90;;;;;;5020908;28;20049;-59
2022/06/13 10:20:13;;;;;;;8.93;1.55;;;16.30;99.90;;;;;;5022467;28;20057;-59
2022/06/13 10:23:13;;;;;;;9.48;1.77;;;16.10;99.90;;;;;;5021232;28;20058;-59
2022/06/13 10:26:15;;;;;;;10.77;1.73;;;16.00;99.90;;;;;;5020887;28;20054;-58
2022/06/13 10:29:04;;;;;;;11.98;2.40;;;15.90;99.90;;;;;;5022276;28;20038;-60
2022/06/13 10:31:44;;;;;;;5.03;1.30;;;15.80;99.90;;;;;;5021437;28;20050;-59
2022/06/13 10:34:28;;;;;;;10.18;2.08;;;15.60;99.90;;;;;;5003220;28;20133;-60
2022/06/13 10:37:25;;;;;;;10.30;1.90;;;15.60;99.90;;;;;;5022490;28;20100;-59
2022/06/13 10:39:55;;;;;;;11.50;2.70;;;15.50;99.90;;;;;;5020888;28;20064;-60
2022/06/13 10:42:24;;;;;;;8.32;2.17;;;15.60;99.90;;;;;;5003628;28;20084;-60
2022/06/13 10:44:51;;;;;;;14.60;2.40;;;15.80;99.90;;;;;;5021492;28;20034;-59
2022/06/13 10:47:20;;;;;;;9.90;2.22;;;16.00;99.90;;;;;;5020070;28;20056;-60
2022/06/13 10:49:58;;;;;;;8.55;1.88;;;16.20;99.90;;;;;;5021932;28;20569;-59
2022/06/13 10:52:30;;;;;;;11.77;1.95;;;16.50;99.90;;;;;;5020449;28;20112;-60
2022/06/13 10:55:00;;;;;;;8.05;1.65;;;15.90;99.90;;;;;;5021450;28;20045;-58
2022/06/13 10:57:32;;;;;;;12.02;2.22;;;15.80;99.90;;;;;;5021308;28;20041;-58
2022/06/13 11:00:11;;;;;;;12.73;1.90;;;15.60;99.90;;;;;;5002441;28;20527;-59
2022/06/13 11:02:37;;;;;;;13.05;2.30;;;15.90;99.90;;;;;;5021236;28;20113;-58
2022/06/13 11:05:08;;;;;;;10.43;1.90;;;16.40;99.90;;;;;;5019876;28;20046;-58
2022/06/13 11:07:43;;;;;;;9.00;1.90;;;16.50;99.90;;;;;;5021446;28;20045;-59
2022/06/13 11:10:21;;;;;;;9.15;2.05;;;16.60;99.90;;;;;;5020682;28;20045;-59
2022/06/13 11:12:51;;;;;;;9.32;1.83;;;16.10;99.90;;;;;;5019970;28;20041;-59
2022/06/13 11:24:11;;;;;;;8.68;2.30;;;15.70;99.90;;;;;;5001863;28;20587;-59
2022/06/13 11:29:33;;;;;;;13.30;2.17;;;15.60;99.90;;;;;;5000787;28;20054;-60
2022/06/13 11:32:01;;;;;;;9.30;2.40;;;15.70;99.90;;;;;;4984119;28;20038;-61
2022/06/13 11:34:32;;;;;;;11.80;2.20;;;15.80;99.90;;;;;;4999681;28;20066;-59
2022/06/13 11:37:23;;;;;;;11.02;2.30;;;15.90;99.90;;;;;;4983988;28;20038;-60
2022/06/13 11:39:51;;;;;;;12.95;2.25;;;15.90;99.90;;;;;;5000201;28;20054;-60
2022/06/13 11:42:27;;;;;;;9.27;2.10;;;15.70;99.90;;;;;;5000552;28;20061;-60
2022/06/13 11:44:57;;;;;;;12.02;2.35;;;16.10;99.90;;;;;;5001007;28;20553;-60
2022/06/13 11:47:24;;;;;;;8.82;1.73;;;16.20;99.90;;;;;;4999311;28;20106;-60
2022/06/13 11:49:55;;;;;;;8.63;1.80;;;15.80;99.90;;;;;;5001472;28;20038;-60
2022/06/13 11:55:22;;;;;;;8.07;1.63;;;16.00;99.90;;;;;;4999962;28;20073;-58
2022/06/13 11:58:00;;;;;;;10.70;3.05;;;16.10;99.90;;;;;;5001132;28;20077;-59
2022/06/13 12:00:34;;;;;;;10.45;1.80;;;16.00;99.90;;;;;;4999156;28;20510;-59
2022/06/13 12:03:22;;;;;;;11.43;2.28;;;15.70;99.90;;;;;;5000936;28;20038;-58
2022/06/13 12:06:05;;;;;;;15.35;2.72;;;16.00;99.90;;;;;;5000255;28;20085;-58
2022/06/13 12:08:31;;;;;;;15.80;2.35;;;15.80;99.90;;;;;;4999101;28;20104;-59
2022/06/13 12:11:02;;;;;;;9.80;1.90;;;16.20;99.90;;;;;;5001004;28;20042;-59
2022/06/13 12:13:30;;;;;;;9.13;1.70;;;16.00;99.90;;;;;;4998119;28;20154;-58
2022/06/13 12:16:24;;;;;;;10.07;1.80;;;15.90;99.90;;;;;;5000758;28;20050;-59
2022/06/13 12:19:18;;;;;;;10.75;2.10;;;15.90;99.90;;;;;;5000119;28;20142;-59
2022/06/13 12:22:02;;;;;;;6.80;1.40;;;15.80;99.90;;;;;;5001908;28;20053;-59
2022/06/13 12:24:39;;;;;;;9.63;1.95;;;15.70;99.90;;;;;;5020146;28;20117;-59
2022/06/13 12:27:11;;;;;;;8.90;1.52;;;16.00;99.90;;;;;;5019063;28;20042;-59
2022/06/13 12:30:02;;;;;;;8.23;1.80;;;15.90;99.90;;;;;;5019358;28;20041;-60
2022/06/13 12:32:35;;;;;;;10.85;1.95;;;16.00;99.90;;;;;;5020639;28;20124;-60
2022/06/13 12:35:20;;;;;;;11.20;2.58;;;16.30;99.90;;;;;;5018143;28;20056;-60
2022/06/13 12:38:03;;;;;;;10.70;1.52;;;16.40;99.90;;;;;;5019462;28;20123;-60
2022/06/13 12:40:36;;;;;;;8.00;1.88;;;16.30;99.90;;;;;;5019637;28;20155;-61
2022/06/13 12:43:19;;;;;;;8.68;1.70;;;16.40;99.90;;;;;;5018152;28;20442;-60
2022/06/13 12:45:54;;;;;;;8.20;1.40;;;16.10;99.90;;;;;;5019834;28;20045;-60
2022/06/13 12:48:46;;;;;;;5.55;1.00;;;16.10;99.90;;;;;;5018578;28;20057;-62
2022/06/13 12:51:12;;;;;;;7.18;1.20;;;15.90;99.90;;;;;;5018665;28;20044;-60
2022/06/13 12:54:08;;;;;;;8.15;1.40;;;16.00;99.90;;;;;;5019766;28;20054;-59
2022/06/13 12:57:12;;;;;;;8.10;1.33;;;15.90;99.90;;;;;;5017558;28;20060;-59
2022/06/13 13:00:03;;;;;;;8.10;1.50;;;15.50;99.90;;;;;;5018684;28;20050;-60
2022/06/13 13:02:45;;;;;;;8.68;1.65;;;15.50;99.90;;;;;;5020040;28;20049;-60
2022/06/13 13:05:17;;;;;;;9.43;1.30;;;15.50;99.90;;;;;;5018259;28;20037;-59
2022/06/13 13:08:12;;;;;;;6.18;1.30;;;15.70;99.90;;;;;;5019229;28;20046;-60
2022/06/13 13:10:58;;;;;;;9.90;1.80;;;16.40;99.90;;;;;;5019744;28;20042;-60
2022/06/13 13:13:36;;;;;;;8.35;1.60;;;16.50;99.90;;;;;;5017593;28;20045;-59
2022/06/13 13:16:19;;;;;;;6.20;1.20;;;16.50;99.90;;;;;;5019519;28;20042;-59
2022/06/13 13:18:57;;;;;;;5.93;1.42;;;16.70;99.90;;;;;;5018978;28;20062;-59
2022/06/13 13:22:01;;;;;;;5.78;1.23;;;16.30;99.90;;;;;;5017793;28;20046;-59
2022/06/13 13:25:12;;;;;;;5.45;1.20;;;16.10;99.90;;;;;;4999954;28;20064;-59
2022/06/13 13:28:12;;;;;;;6.43;1.10;;;16.30;99.90;;;;;;5013892;28;20061;-59
2022/06/13 13:30:54;;;;;;;5.53;1.20;;;16.50;99.90;;;;;;5015999;28;20485;-59
2022/06/13 13:33:37;;;;;;;7.75;2.22;;;16.50;99.90;;;;;;5023188;28;20065;-59
2022/06/13 13:36:43;;;;;;;6.45;1.30;;;16.70;99.90;;;;;;5023115;28;20097;-59
2022/06/13 13:39:17;;;;;;;5.82;1.67;;;16.30;99.90;;;;;;5000925;28;20054;-58
2022/06/13 13:41:57;;;;;;;6.18;1.20;;;16.10;99.90;;;;;;5023036;28;20112;-59
2022/06/13 13:44:32;;;;;;;8.18;1.42;;;16.20;99.90;;;;;;5022323;28;20042;-58
2022/06/13 13:47:19;;;;;;;5.88;1.00;;;16.50;99.90;;;;;;5021558;28;20093;-58
2022/06/13 13:50:13;;;;;;;6.47;1.30;;;16.30;99.90;;;;;;5023309;28;20034;-58